sensor_id;sensor_type;location;lat;lon;timestamp;P1;durP1;ratioP1;P2;durP2;ratioP2
72557;SDS011;60583;50.094;8.748;2023-10-19T00:00:39;14.07;;;7.70;;
72557;SDS011;60583;50.094;8.748;2023-10-19T00:03:05;12.30;;;7.93;;
72557;SDS011;60583;50.094;8.748;2023-10-19T00:05:34;12.07;;;8.15;;
72557;SDS011;60583;50.094;8.748;2023-10-19T00:08:01;12.98;;;8.00;;
72557;SDS011;60583;50.094;8.748;2023-10-19T00:10:39;14.02;;;8.55;;
72557;SDS011;60583;50.094;8.748;2023-10-19T00:13:08;12.40;;;7.90;;
72557;SDS011;60583;50.094;8.748;2023-10-19T00:15:36;12.93;;;8.48;;
72557;SDS011;60583;50.094;8.748;2023-10-19T00:18:08;13.07;;;7.95;;
72557;SDS011;60583;50.094;8.748;2023-10-19T00:20:43;13.23;;;8.48;;
72557;SDS011;60583;50.094;8.748;2023-10-19T00:23:10;14.10;;;8.70;;
72557;SDS011;60583;50.094;8.748;2023-10-19T00:25:44;13.52;;;8.45;;
72557;SDS011;60583;50.094;8.748;2023-10-19T00:28:15;13.93;;;7.38;;
72557;SDS011;60583;50.094;8.748;2023-10-19T00:30:42;13.00;;;9.02;;
72557;SDS011;60583;50.094;8.748;2023-10-19T00:33:10;12.45;;;8.00;;
72557;SDS011;60583;50.094;8.748;2023-10-19T00:35:43;10.90;;;7.70;;
72557;SDS011;60583;50.094;8.748;2023-10-19T00:38:31;12.43;;;7.95;;
72557;SDS011;60583;50.094;8.748;2023-10-19T00:41:03;12.13;;;7.30;;
72557;SDS011;60583;50.094;8.748;2023-10-19T00:43:40;12.20;;;7.60;;
72557;SDS011;60583;50.094;8.748;2023-10-19T00:46:14;14.40;;;8.50;;
72557;SDS011;60583;50.094;8.748;2023-10-19T00:48:53;11.50;;;7.63;;
72557;SDS011;60583;50.094;8.748;2023-10-19T00:51:21;13.20;;;8.10;;
72557;SDS011;60583;50.094;8.748;2023-10-19T00:53:58;12.65;;;7.80;;
72557;SDS011;60583;50.094;8.748;2023-10-19T00:56:34;12.65;;;7.65;;
72557;SDS011;60583;50.094;8.748;2023-10-19T00:59:01;12.25;;;8.25;;
72557;SDS011;60583;50.094;8.748;2023-10-19T01:01:38;11.90;;;7.38;;
72557;SDS011;60583;50.094;8.748;2023-10-19T01:04:09;12.07;;;7.32;;
72557;SDS011;60583;50.094;8.748;2023-10-19T01:06:39;12.60;;;8.00;;
72557;SDS011;60583;50.094;8.748;2023-10-19T01:09:08;11.00;;;7.45;;
72557;SDS011;60583;50.094;8.748;2023-10-19T01:11:34;11.20;;;7.13;;
72557;SDS011;60583;50.094;8.748;2023-10-19T01:14:00;11.63;;;7.15;;
72557;SDS011;60583;50.094;8.748;2023-10-19T01:16:43;11.32;;;7.50;;
72557;SDS011;60583;50.094;8.748;2023-10-19T01:19:11;11.02;;;8.13;;
72557;SDS011;60583;50.094;8.748;2023-10-19T01:21:36;11.35;;;7.00;;
72557;SDS011;60583;50.094;8.748;2023-10-19T01:24:10;14.25;;;8.00;;
72557;SDS011;60583;50.094;8.748;2023-10-19T01:26:42;11.75;;;7.38;;
72557;SDS011;60583;50.094;8.748;2023-10-19T01:29:08;12.65;;;8.48;;
72557;SDS011;60583;50.094;8.748;2023-10-19T01:31:47;12.32;;;8.50;;
72557;SDS011;60583;50.094;8.748;2023-10-19T01:34:20;12.48;;;7.70;;
72557;SDS011;60583;50.094;8.748;2023-10-19T01:36:46;12.75;;;8.20;;
72557;SDS011;60583;50.094;8.748;2023-10-19T01:39:15;13.57;;;8.25;;
72557;SDS011;60583;50.094;8.748;2023-10-19T01:41:43;12.52;;;8.27;;
72557;SDS011;60583;50.094;8.748;2023-10-19T01:44:09;12.20;;;7.57;;
72557;SDS011;60583;50.094;8.748;2023-10-19T01:46:38;11.63;;;7.32;;
72557;SDS011;60583;50.094;8.748;2023-10-19T01:49:05;14.38;;;8.52;;
72557;SDS011;60583;50.094;8.748;2023-10-19T01:51:32;13.77;;;8.10;;
72557;SDS011;60583;50.094;8.748;2023-10-19T01:54:03;11.80;;;7.78;;
72557;SDS011;60583;50.094;8.748;2023-10-19T01:56:28;12.10;;;7.93;;
72557;SDS011;60583;50.094;8.748;2023-10-19T01:58:54;12.27;;;8.55;;
72557;SDS011;60583;50.094;8.748;2023-10-19T02:01:20;12.40;;;8.32;;
72557;SDS011;60583;50.094;8.748;2023-10-19T02:03:58;12.57;;;7.85;;
72557;SDS011;60583;50.094;8.748;2023-10-19T02:06:28;12.55;;;8.27;;
72557;SDS011;60583;50.094;8.748;2023-10-19T02:09:12;12.65;;;8.52;;
72557;SDS011;60583;50.094;8.748;2023-10-19T02:11:57;12.93;;;7.78;;
72557;SDS011;60583;50.094;8.748;2023-10-19T02:14:23;11.52;;;7.90;;
72557;SDS011;60583;50.094;8.748;2023-10-19T02:16:54;12.50;;;8.45;;
72557;SDS011;60583;50.094;8.748;2023-10-19T02:19:24;12.73;;;8.55;;
72557;SDS011;60583;50.094;8.748;2023-10-19T02:21:53;13.43;;;8.45;;
72557;SDS011;60583;50.094;8.748;2023-10-19T02:24:20;12.93;;;8.23;;
72557;SDS011;60583;50.094;8.748;2023-10-19T02:26:50;11.75;;;8.35;;
72557;SDS011;60583;50.094;8.748;2023-10-19T02:29:17;11.35;;;8.27;;
72557;SDS011;60583;50.094;8.748;2023-10-19T02:31:43;13.27;;;8.68;;
72557;SDS011;60583;50.094;8.748;2023-10-19T02:34:10;12.02;;;7.68;;
72557;SDS011;60583;50.094;8.748;2023-10-19T02:36:40;14.38;;;8.85;;
72557;SDS011;60583;50.094;8.748;2023-10-19T02:39:07;12.27;;;7.70;;
72557;SDS011;60583;50.094;8.748;2023-10-19T02:41:43;11.98;;;7.40;;
72557;SDS011;60583;50.094;8.748;2023-10-19T02:44:12;13.32;;;9.13;;
72557;SDS011;60583;50.094;8.748;2023-10-19T02:46:41;12.63;;;8.90;;
72557;SDS011;60583;50.094;8.748;2023-10-19T02:49:07;12.05;;;8.15;;
72557;SDS011;60583;50.094;8.748;2023-10-19T02:51:36;13.88;;;9.07;;
72557;SDS011;60583;50.094;8.748;2023-10-19T02:54:07;12.00;;;7.90;;
72557;SDS011;60583;50.094;8.748;2023-10-19T02:56:33;14.07;;;8.93;;
72557;SDS011;60583;50.094;8.748;2023-10-19T02:59:03;13.40;;;8.27;;
72557;SDS011;60583;50.094;8.748;2023-10-19T03:01:30;12.57;;;8.20;;
72557;SDS011;60583;50.094;8.748;2023-10-19T03:03:58;12.77;;;8.98;;
72557;SDS011;60583;50.094;8.748;2023-10-19T03:06:27;14.27;;;9.05;;
72557;SDS011;60583;50.094;8.748;2023-10-19T03:09:03;14.13;;;8.70;;
72557;SDS011;60583;50.094;8.748;2023-10-19T03:11:38;14.95;;;9.00;;
72557;SDS011;60583;50.094;8.748;2023-10-19T03:14:05;14.13;;;8.85;;
72557;SDS011;60583;50.094;8.748;2023-10-19T03:16:31;12.27;;;8.02;;
72557;SDS011;60583;50.094;8.748;2023-10-19T03:18:57;13.32;;;8.15;;
72557;SDS011;60583;50.094;8.748;2023-10-19T03:21:22;13.27;;;8.90;;
72557;SDS011;60583;50.094;8.748;2023-10-19T03:23:57;13.07;;;7.80;;
72557;SDS011;60583;50.094;8.748;2023-10-19T03:26:24;13.55;;;8.18;;
72557;SDS011;60583;50.094;8.748;2023-10-19T03:28:50;14.90;;;9.45;;
72557;SDS011;60583;50.094;8.748;2023-10-19T03:31:23;13.63;;;8.35;;
72557;SDS011;60583;50.094;8.748;2023-10-19T03:33:52;14.30;;;9.20;;
72557;SDS011;60583;50.094;8.748;2023-10-19T03:36:21;13.27;;;8.55;;
72557;SDS011;60583;50.094;8.748;2023-10-19T03:38:47;14.02;;;8.50;;
72557;SDS011;60583;50.094;8.748;2023-10-19T03:41:15;14.13;;;8.50;;
72557;SDS011;60583;50.094;8.748;2023-10-19T03:43:41;14.32;;;8.57;;
72557;SDS011;60583;50.094;8.748;2023-10-19T03:46:06;14.30;;;8.98;;
72557;SDS011;60583;50.094;8.748;2023-10-19T03:48:49;13.70;;;8.90;;
72557;SDS011;60583;50.094;8.748;2023-10-19T03:51:15;15.23;;;8.73;;
72557;SDS011;60583;50.094;8.748;2023-10-19T03:53:41;15.88;;;10.13;;
72557;SDS011;60583;50.094;8.748;2023-10-19T03:56:13;15.40;;;9.55;;
72557;SDS011;60583;50.094;8.748;2023-10-19T03:58:39;15.57;;;9.73;;
72557;SDS011;60583;50.094;8.748;2023-10-19T04:01:07;13.50;;;9.00;;
72557;SDS011;60583;50.094;8.748;2023-10-19T04:03:34;13.90;;;9.43;;
72557;SDS011;60583;50.094;8.748;2023-10-19T04:06:01;15.23;;;10.20;;
72557;SDS011;60583;50.094;8.748;2023-10-19T04:08:29;13.60;;;9.15;;
72557;SDS011;60583;50.094;8.748;2023-10-19T04:10:59;12.02;;;7.55;;
72557;SDS011;60583;50.094;8.748;2023-10-19T04:13:36;14.77;;;9.05;;
72557;SDS011;60583;50.094;8.748;2023-10-19T04:16:02;14.88;;;8.93;;
72557;SDS011;60583;50.094;8.748;2023-10-19T04:18:28;15.40;;;9.77;;
72557;SDS011;60583;50.094;8.748;2023-10-19T04:20:54;15.88;;;9.30;;
72557;SDS011;60583;50.094;8.748;2023-10-19T04:23:19;13.68;;;8.63;;
72557;SDS011;60583;50.094;8.748;2023-10-19T04:25:52;15.88;;;9.13;;
72557;SDS011;60583;50.094;8.748;2023-10-19T04:28:29;15.52;;;9.00;;
72557;SDS011;60583;50.094;8.748;2023-10-19T04:31:10;15.98;;;9.70;;
72557;SDS011;60583;50.094;8.748;2023-10-19T04:33:39;15.68;;;9.80;;
72557;SDS011;60583;50.094;8.748;2023-10-19T04:36:05;17.50;;;11.05;;
72557;SDS011;60583;50.094;8.748;2023-10-19T04:38:33;17.40;;;9.95;;
72557;SDS011;60583;50.094;8.748;2023-10-19T04:41:06;16.48;;;10.63;;
72557;SDS011;60583;50.094;8.748;2023-10-19T04:43:34;16.30;;;10.38;;
72557;SDS011;60583;50.094;8.748;2023-10-19T04:46:09;17.35;;;10.35;;
72557;SDS011;60583;50.094;8.748;2023-10-19T04:48:37;17.27;;;10.45;;
72557;SDS011;60583;50.094;8.748;2023-10-19T04:51:05;16.17;;;11.38;;
72557;SDS011;60583;50.094;8.748;2023-10-19T04:53:32;16.02;;;10.60;;
72557;SDS011;60583;50.094;8.748;2023-10-19T04:55:58;15.88;;;9.60;;
72557;SDS011;60583;50.094;8.748;2023-10-19T04:58:26;16.23;;;10.15;;
72557;SDS011;60583;50.094;8.748;2023-10-19T05:00:53;16.13;;;10.88;;
72557;SDS011;60583;50.094;8.748;2023-10-19T05:03:19;17.13;;;10.98;;
72557;SDS011;60583;50.094;8.748;2023-10-19T05:05:44;15.65;;;9.60;;
72557;SDS011;60583;50.094;8.748;2023-10-19T05:08:10;14.98;;;10.63;;
72557;SDS011;60583;50.094;8.748;2023-10-19T05:10:36;17.55;;;10.85;;
72557;SDS011;60583;50.094;8.748;2023-10-19T05:13:02;16.92;;;11.18;;
72557;SDS011;60583;50.094;8.748;2023-10-19T05:15:28;17.52;;;9.95;;
72557;SDS011;60583;50.094;8.748;2023-10-19T05:17:54;16.45;;;10.98;;
72557;SDS011;60583;50.094;8.748;2023-10-19T05:20:19;15.05;;;10.57;;
72557;SDS011;60583;50.094;8.748;2023-10-19T05:22:46;16.80;;;10.68;;
72557;SDS011;60583;50.094;8.748;2023-10-19T05:25:12;15.50;;;10.13;;
72557;SDS011;60583;50.094;8.748;2023-10-19T05:27:37;16.88;;;11.48;;
72557;SDS011;60583;50.094;8.748;2023-10-19T05:30:04;14.90;;;11.25;;
72557;SDS011;60583;50.094;8.748;2023-10-19T05:32:30;17.52;;;11.50;;
72557;SDS011;60583;50.094;8.748;2023-10-19T05:34:56;15.98;;;10.02;;
72557;SDS011;60583;50.094;8.748;2023-10-19T05:37:22;16.02;;;10.27;;
72557;SDS011;60583;50.094;8.748;2023-10-19T05:39:48;15.40;;;10.30;;
72557;SDS011;60583;50.094;8.748;2023-10-19T05:42:17;15.88;;;10.27;;
72557;SDS011;60583;50.094;8.748;2023-10-19T05:44:42;14.73;;;10.20;;
72557;SDS011;60583;50.094;8.748;2023-10-19T05:47:08;16.73;;;10.75;;
72557;SDS011;60583;50.094;8.748;2023-10-19T05:49:33;17.05;;;10.95;;
72557;SDS011;60583;50.094;8.748;2023-10-19T05:51:59;17.02;;;10.60;;
72557;SDS011;60583;50.094;8.748;2023-10-19T05:54:24;15.23;;;9.80;;
72557;SDS011;60583;50.094;8.748;2023-10-19T05:56:50;16.40;;;10.65;;
72557;SDS011;60583;50.094;8.748;2023-10-19T05:59:16;16.85;;;10.85;;
72557;SDS011;60583;50.094;8.748;2023-10-19T06:01:42;14.57;;;9.88;;
72557;SDS011;60583;50.094;8.748;2023-10-19T06:04:11;14.75;;;9.68;;
72557;SDS011;60583;50.094;8.748;2023-10-19T06:06:37;14.00;;;10.20;;
72557;SDS011;60583;50.094;8.748;2023-10-19T06:09:04;15.38;;;9.95;;
72557;SDS011;60583;50.094;8.748;2023-10-19T06:11:33;16.67;;;10.40;;
72557;SDS011;60583;50.094;8.748;2023-10-19T06:13:59;18.52;;;10.35;;
72557;SDS011;60583;50.094;8.748;2023-10-19T06:16:25;18.27;;;10.27;;
72557;SDS011;60583;50.094;8.748;2023-10-19T06:18:50;15.68;;;10.75;;
72557;SDS011;60583;50.094;8.748;2023-10-19T06:21:19;15.43;;;9.90;;
72557;SDS011;60583;50.094;8.748;2023-10-19T06:23:44;15.50;;;9.07;;
72557;SDS011;60583;50.094;8.748;2023-10-19T06:26:10;17.25;;;10.13;;
72557;SDS011;60583;50.094;8.748;2023-10-19T06:28:37;15.93;;;9.68;;
72557;SDS011;60583;50.094;8.748;2023-10-19T06:31:05;14.43;;;10.23;;
72557;SDS011;60583;50.094;8.748;2023-10-19T06:33:30;15.07;;;9.88;;
72557;SDS011;60583;50.094;8.748;2023-10-19T06:35:58;16.15;;;10.10;;
72557;SDS011;60583;50.094;8.748;2023-10-19T06:38:24;18.58;;;12.48;;
72557;SDS011;60583;50.094;8.748;2023-10-19T06:40:51;15.75;;;9.95;;
72557;SDS011;60583;50.094;8.748;2023-10-19T06:43:16;16.50;;;10.18;;
72557;SDS011;60583;50.094;8.748;2023-10-19T06:45:43;17.77;;;11.90;;
72557;SDS011;60583;50.094;8.748;2023-10-19T06:48:10;17.23;;;10.57;;
72557;SDS011;60583;50.094;8.748;2023-10-19T06:50:36;18.40;;;11.20;;
72557;SDS011;60583;50.094;8.748;2023-10-19T06:53:03;16.77;;;10.60;;
72557;SDS011;60583;50.094;8.748;2023-10-19T06:55:30;17.48;;;11.70;;
72557;SDS011;60583;50.094;8.748;2023-10-19T06:57:56;17.10;;;10.35;;
72557;SDS011;60583;50.094;8.748;2023-10-19T07:00:22;16.27;;;10.05;;
72557;SDS011;60583;50.094;8.748;2023-10-19T07:02:51;17.85;;;10.40;;
72557;SDS011;60583;50.094;8.748;2023-10-19T07:05:20;18.17;;;10.82;;
72557;SDS011;60583;50.094;8.748;2023-10-19T07:07:47;16.42;;;10.27;;
72557;SDS011;60583;50.094;8.748;2023-10-19T07:10:14;16.95;;;9.43;;
72557;SDS011;60583;50.094;8.748;2023-10-19T07:12:41;19.67;;;11.10;;
72557;SDS011;60583;50.094;8.748;2023-10-19T07:15:08;19.17;;;11.10;;
72557;SDS011;60583;50.094;8.748;2023-10-19T07:17:38;18.10;;;12.15;;
72557;SDS011;60583;50.094;8.748;2023-10-19T07:20:05;16.52;;;10.32;;
72557;SDS011;60583;50.094;8.748;2023-10-19T07:22:34;16.80;;;10.88;;
72557;SDS011;60583;50.094;8.748;2023-10-19T07:25:04;17.85;;;11.25;;
72557;SDS011;60583;50.094;8.748;2023-10-19T07:27:31;18.05;;;11.43;;
72557;SDS011;60583;50.094;8.748;2023-10-19T07:29:58;18.35;;;10.80;;
72557;SDS011;60583;50.094;8.748;2023-10-19T07:32:24;18.35;;;11.85;;
72557;SDS011;60583;50.094;8.748;2023-10-19T07:34:50;20.25;;;12.35;;
72557;SDS011;60583;50.094;8.748;2023-10-19T07:37:15;19.60;;;12.80;;
72557;SDS011;60583;50.094;8.748;2023-10-19T07:39:49;18.52;;;11.50;;
72557;SDS011;60583;50.094;8.748;2023-10-19T07:42:17;18.02;;;11.43;;
72557;SDS011;60583;50.094;8.748;2023-10-19T07:44:43;19.60;;;11.40;;
72557;SDS011;60583;50.094;8.748;2023-10-19T07:47:10;16.95;;;10.15;;
72557;SDS011;60583;50.094;8.748;2023-10-19T07:49:36;19.33;;;11.80;;
72557;SDS011;60583;50.094;8.748;2023-10-19T07:52:05;23.20;;;13.52;;
72557;SDS011;60583;50.094;8.748;2023-10-19T07:54:36;26.42;;;15.60;;
72557;SDS011;60583;50.094;8.748;2023-10-19T07:57:04;27.38;;;14.90;;
72557;SDS011;60583;50.094;8.748;2023-10-19T07:59:32;23.65;;;13.13;;
72557;SDS011;60583;50.094;8.748;2023-10-19T08:01:58;25.17;;;14.38;;
72557;SDS011;60583;50.094;8.748;2023-10-19T08:04:27;25.60;;;13.15;;
72557;SDS011;60583;50.094;8.748;2023-10-19T08:06:53;26.60;;;14.60;;
72557;SDS011;60583;50.094;8.748;2023-10-19T08:09:20;26.25;;;14.52;;
72557;SDS011;60583;50.094;8.748;2023-10-19T08:11:50;31.27;;;17.35;;
72557;SDS011;60583;50.094;8.748;2023-10-19T08:14:21;32.22;;;16.80;;
72557;SDS011;60583;50.094;8.748;2023-10-19T08:16:49;28.80;;;14.98;;
72557;SDS011;60583;50.094;8.748;2023-10-19T08:19:14;26.00;;;14.13;;
72557;SDS011;60583;50.094;8.748;2023-10-19T08:21:40;25.25;;;14.23;;
72557;SDS011;60583;50.094;8.748;2023-10-19T08:24:06;28.20;;;15.23;;
72557;SDS011;60583;50.094;8.748;2023-10-19T08:26:31;25.58;;;15.32;;
72557;SDS011;60583;50.094;8.748;2023-10-19T08:28:57;29.52;;;15.75;;
72557;SDS011;60583;50.094;8.748;2023-10-19T08:31:25;28.67;;;16.40;;
72557;SDS011;60583;50.094;8.748;2023-10-19T08:33:50;28.40;;;15.52;;
72557;SDS011;60583;50.094;8.748;2023-10-19T08:36:17;27.60;;;15.95;;
72557;SDS011;60583;50.094;8.748;2023-10-19T08:38:45;30.85;;;16.38;;
72557;SDS011;60583;50.094;8.748;2023-10-19T08:41:14;28.13;;;16.23;;
72557;SDS011;60583;50.094;8.748;2023-10-19T08:43:40;29.08;;;17.17;;
72557;SDS011;60583;50.094;8.748;2023-10-19T08:46:06;30.77;;;16.13;;
72557;SDS011;60583;50.094;8.748;2023-10-19T08:48:35;30.40;;;17.02;;
72557;SDS011;60583;50.094;8.748;2023-10-19T08:51:03;29.83;;;15.68;;
72557;SDS011;60583;50.094;8.748;2023-10-19T08:53:33;29.85;;;15.80;;
72557;SDS011;60583;50.094;8.748;2023-10-19T08:56:05;28.38;;;16.33;;
72557;SDS011;60583;50.094;8.748;2023-10-19T08:58:31;28.90;;;16.17;;
72557;SDS011;60583;50.094;8.748;2023-10-19T09:00:57;26.58;;;15.48;;
72557;SDS011;60583;50.094;8.748;2023-10-19T09:03:25;33.08;;;16.25;;
72557;SDS011;60583;50.094;8.748;2023-10-19T09:05:51;30.60;;;17.65;;
72557;SDS011;60583;50.094;8.748;2023-10-19T09:08:17;30.38;;;16.35;;
72557;SDS011;60583;50.094;8.748;2023-10-19T09:10:45;36.15;;;18.40;;
72557;SDS011;60583;50.094;8.748;2023-10-19T09:13:11;29.67;;;16.27;;
72557;SDS011;60583;50.094;8.748;2023-10-19T09:15:38;33.03;;;17.98;;
72557;SDS011;60583;50.094;8.748;2023-10-19T09:20:39;33.72;;;18.58;;
72557;SDS011;60583;50.094;8.748;2023-10-19T09:23:07;31.30;;;17.83;;
72557;SDS011;60583;50.094;8.748;2023-10-19T09:25:33;32.03;;;18.05;;
72557;SDS011;60583;50.094;8.748;2023-10-19T09:28:00;37.25;;;20.60;;
72557;SDS011;60583;50.094;8.748;2023-10-19T09:30:27;49.95;;;28.52;;
72557;SDS011;60583;50.094;8.748;2023-10-19T09:32:56;34.70;;;19.90;;
72557;SDS011;60583;50.094;8.748;2023-10-19T09:35:22;32.45;;;19.38;;
72557;SDS011;60583;50.094;8.748;2023-10-19T09:37:53;33.25;;;18.05;;
72557;SDS011;60583;50.094;8.748;2023-10-19T09:40:19;35.92;;;19.15;;
72557;SDS011;60583;50.094;8.748;2023-10-19T09:42:46;34.33;;;17.63;;
72557;SDS011;60583;50.094;8.748;2023-10-19T09:45:17;33.97;;;19.00;;
72557;SDS011;60583;50.094;8.748;2023-10-19T09:47:46;35.13;;;19.20;;
72557;SDS011;60583;50.094;8.748;2023-10-19T09:50:15;34.70;;;18.08;;
72557;SDS011;60583;50.094;8.748;2023-10-19T09:52:40;34.60;;;18.77;;
72557;SDS011;60583;50.094;8.748;2023-10-19T09:55:08;32.13;;;18.65;;
72557;SDS011;60583;50.094;8.748;2023-10-19T09:57:45;37.30;;;19.80;;
72557;SDS011;60583;50.094;8.748;2023-10-19T10:00:14;34.30;;;20.08;;
72557;SDS011;60583;50.094;8.748;2023-10-19T10:02:43;35.78;;;19.38;;
72557;SDS011;60583;50.094;8.748;2023-10-19T10:10:45;41.13;;;18.90;;
72557;SDS011;60583;50.094;8.748;2023-10-19T10:15:49;70.78;;;38.33;;
72557;SDS011;60583;50.094;8.748;2023-10-19T10:18:18;82.80;;;58.20;;
72557;SDS011;60583;50.094;8.748;2023-10-19T10:20:43;181.25;;;125.60;;
72557;SDS011;60583;50.094;8.748;2023-10-19T10:23:19;65.25;;;41.00;;
72557;SDS011;60583;50.094;8.748;2023-10-19T10:25:50;35.55;;;18.58;;
72557;SDS011;60583;50.094;8.748;2023-10-19T10:28:19;35.08;;;16.30;;
72557;SDS011;60583;50.094;8.748;2023-10-19T10:33:39;28.48;;;16.67;;
72557;SDS011;60583;50.094;8.748;2023-10-19T10:36:13;30.70;;;16.50;;
72557;SDS011;60583;50.094;8.748;2023-10-19T10:38:39;29.95;;;16.02;;
72557;SDS011;60583;50.094;8.748;2023-10-19T10:41:06;29.02;;;16.52;;
72557;SDS011;60583;50.094;8.748;2023-10-19T10:43:46;28.63;;;17.20;;
72557;SDS011;60583;50.094;8.748;2023-10-19T10:46:13;28.27;;;16.58;;
72557;SDS011;60583;50.094;8.748;2023-10-19T10:48:42;30.08;;;16.02;;
72557;SDS011;60583;50.094;8.748;2023-10-19T10:51:14;25.60;;;15.38;;
72557;SDS011;60583;50.094;8.748;2023-10-19T10:53:43;28.65;;;16.65;;
72557;SDS011;60583;50.094;8.748;2023-10-19T10:56:09;26.30;;;15.90;;
72557;SDS011;60583;50.094;8.748;2023-10-19T10:58:34;28.55;;;16.50;;
72557;SDS011;60583;50.094;8.748;2023-10-19T11:00:59;29.67;;;16.60;;
72557;SDS011;60583;50.094;8.748;2023-10-19T11:03:25;26.02;;;15.77;;
72557;SDS011;60583;50.094;8.748;2023-10-19T11:05:55;27.23;;;14.93;;
72557;SDS011;60583;50.094;8.748;2023-10-19T11:08:23;28.83;;;16.63;;
72557;SDS011;60583;50.094;8.748;2023-10-19T11:10:49;25.83;;;14.20;;
72557;SDS011;60583;50.094;8.748;2023-10-19T11:13:22;26.45;;;16.23;;
72557;SDS011;60583;50.094;8.748;2023-10-19T11:15:49;27.13;;;16.15;;
72557;SDS011;60583;50.094;8.748;2023-10-19T11:20:54;30.92;;;17.95;;
72557;SDS011;60583;50.094;8.748;2023-10-19T11:23:33;29.00;;;18.33;;
72557;SDS011;60583;50.094;8.748;2023-10-19T11:26:00;30.02;;;19.20;;
72557;SDS011;60583;50.094;8.748;2023-10-19T11:28:27;28.98;;;17.98;;
72557;SDS011;60583;50.094;8.748;2023-10-19T11:30:53;27.52;;;17.23;;
72557;SDS011;60583;50.094;8.748;2023-10-19T11:33:20;27.98;;;17.63;;
72557;SDS011;60583;50.094;8.748;2023-10-19T11:35:49;27.02;;;17.48;;
72557;SDS011;60583;50.094;8.748;2023-10-19T11:38:15;29.05;;;17.80;;
72557;SDS011;60583;50.094;8.748;2023-10-19T11:40:43;32.17;;;17.80;;
72557;SDS011;60583;50.094;8.748;2023-10-19T11:43:08;26.88;;;17.40;;
72557;SDS011;60583;50.094;8.748;2023-10-19T11:45:33;26.23;;;17.33;;
72557;SDS011;60583;50.094;8.748;2023-10-19T11:48:00;28.15;;;16.13;;
72557;SDS011;60583;50.094;8.748;2023-10-19T11:50:26;27.80;;;18.60;;
72557;SDS011;60583;50.094;8.748;2023-10-19T11:52:52;30.15;;;17.55;;
72557;SDS011;60583;50.094;8.748;2023-10-19T11:55:17;29.80;;;17.52;;
72557;SDS011;60583;50.094;8.748;2023-10-19T11:57:43;28.27;;;17.23;;
72557;SDS011;60583;50.094;8.748;2023-10-19T12:00:12;28.52;;;16.90;;
72557;SDS011;60583;50.094;8.748;2023-10-19T12:02:46;25.92;;;17.88;;
72557;SDS011;60583;50.094;8.748;2023-10-19T12:05:12;27.20;;;16.60;;
72557;SDS011;60583;50.094;8.748;2023-10-19T12:07:38;27.10;;;17.45;;
72557;SDS011;60583;50.094;8.748;2023-10-19T12:10:05;26.65;;;17.70;;
72557;SDS011;60583;50.094;8.748;2023-10-19T12:12:33;25.58;;;16.23;;
72557;SDS011;60583;50.094;8.748;2023-10-19T12:14:59;27.50;;;16.95;;
72557;SDS011;60583;50.094;8.748;2023-10-19T12:17:24;30.67;;;17.73;;
72557;SDS011;60583;50.094;8.748;2023-10-19T12:19:52;28.55;;;17.83;;
72557;SDS011;60583;50.094;8.748;2023-10-19T12:22:18;28.52;;;17.10;;
72557;SDS011;60583;50.094;8.748;2023-10-19T12:24:43;26.33;;;16.92;;
72557;SDS011;60583;50.094;8.748;2023-10-19T12:27:09;24.55;;;15.35;;
72557;SDS011;60583;50.094;8.748;2023-10-19T12:29:34;30.30;;;17.35;;
72557;SDS011;60583;50.094;8.748;2023-10-19T12:32:00;27.98;;;17.98;;
72557;SDS011;60583;50.094;8.748;2023-10-19T12:34:25;34.28;;;17.55;;
72557;SDS011;60583;50.094;8.748;2023-10-19T12:36:55;34.47;;;19.90;;
72557;SDS011;60583;50.094;8.748;2023-10-19T12:39:22;33.95;;;21.27;;
72557;SDS011;60583;50.094;8.748;2023-10-19T12:42:00;37.47;;;21.13;;
72557;SDS011;60583;50.094;8.748;2023-10-19T12:44:26;40.92;;;22.52;;
72557;SDS011;60583;50.094;8.748;2023-10-19T12:46:54;40.38;;;22.63;;
72557;SDS011;60583;50.094;8.748;2023-10-19T12:49:22;40.92;;;23.17;;
72557;SDS011;60583;50.094;8.748;2023-10-19T12:51:51;41.72;;;22.88;;
72557;SDS011;60583;50.094;8.748;2023-10-19T12:54:17;40.22;;;22.65;;
72557;SDS011;60583;50.094;8.748;2023-10-19T12:56:43;40.80;;;21.88;;
72557;SDS011;60583;50.094;8.748;2023-10-19T12:59:08;38.13;;;20.02;;
72557;SDS011;60583;50.094;8.748;2023-10-19T13:01:34;42.38;;;20.40;;
72557;SDS011;60583;50.094;8.748;2023-10-19T13:04:00;42.17;;;22.95;;
72557;SDS011;60583;50.094;8.748;2023-10-19T13:06:30;37.78;;;20.88;;
72557;SDS011;60583;50.094;8.748;2023-10-19T13:08:56;38.13;;;20.55;;
72557;SDS011;60583;50.094;8.748;2023-10-19T13:11:22;35.10;;;20.52;;
72557;SDS011;60583;50.094;8.748;2023-10-19T13:13:48;37.00;;;21.52;;
72557;SDS011;60583;50.094;8.748;2023-10-19T13:16:14;38.90;;;21.17;;
72557;SDS011;60583;50.094;8.748;2023-10-19T13:18:40;39.90;;;21.65;;
72557;SDS011;60583;50.094;8.748;2023-10-19T13:21:05;40.72;;;21.85;;
72557;SDS011;60583;50.094;8.748;2023-10-19T13:23:34;40.65;;;21.95;;
72557;SDS011;60583;50.094;8.748;2023-10-19T13:26:01;41.35;;;21.25;;
72557;SDS011;60583;50.094;8.748;2023-10-19T13:28:33;35.20;;;20.95;;
72557;SDS011;60583;50.094;8.748;2023-10-19T13:31:04;39.72;;;22.05;;
72557;SDS011;60583;50.094;8.748;2023-10-19T13:33:29;41.28;;;22.05;;
72557;SDS011;60583;50.094;8.748;2023-10-19T13:35:55;43.28;;;21.92;;
72557;SDS011;60583;50.094;8.748;2023-10-19T13:38:23;45.38;;;24.73;;
72557;SDS011;60583;50.094;8.748;2023-10-19T13:40:49;41.97;;;22.95;;
72557;SDS011;60583;50.094;8.748;2023-10-19T13:43:15;37.30;;;21.10;;
72557;SDS011;60583;50.094;8.748;2023-10-19T13:45:43;42.50;;;22.95;;
72557;SDS011;60583;50.094;8.748;2023-10-19T13:48:09;44.72;;;23.95;;
72557;SDS011;60583;50.094;8.748;2023-10-19T13:50:40;45.25;;;23.65;;
72557;SDS011;60583;50.094;8.748;2023-10-19T13:53:08;40.35;;;21.00;;
72557;SDS011;60583;50.094;8.748;2023-10-19T13:55:34;40.55;;;23.02;;
72557;SDS011;60583;50.094;8.748;2023-10-19T13:58:01;41.17;;;23.45;;
72557;SDS011;60583;50.094;8.748;2023-10-19T14:00:27;42.78;;;22.60;;
72557;SDS011;60583;50.094;8.748;2023-10-19T14:03:00;41.88;;;22.85;;
72557;SDS011;60583;50.094;8.748;2023-10-19T14:05:27;39.55;;;22.67;;
72557;SDS011;60583;50.094;8.748;2023-10-19T14:07:54;38.50;;;22.00;;
72557;SDS011;60583;50.094;8.748;2023-10-19T14:10:21;41.63;;;22.17;;
72557;SDS011;60583;50.094;8.748;2023-10-19T14:12:47;36.05;;;21.35;;
72557;SDS011;60583;50.094;8.748;2023-10-19T14:15:17;39.70;;;22.35;;
72557;SDS011;60583;50.094;8.748;2023-10-19T14:17:44;40.55;;;21.50;;
72557;SDS011;60583;50.094;8.748;2023-10-19T14:20:11;35.85;;;19.60;;
72557;SDS011;60583;50.094;8.748;2023-10-19T14:22:50;34.50;;;20.83;;
72557;SDS011;60583;50.094;8.748;2023-10-19T14:25:18;30.67;;;16.30;;
72557;SDS011;60583;50.094;8.748;2023-10-19T14:27:48;21.98;;;11.45;;
72557;SDS011;60583;50.094;8.748;2023-10-19T14:30:15;16.58;;;10.07;;
72557;SDS011;60583;50.094;8.748;2023-10-19T14:32:47;17.13;;;10.52;;
72557;SDS011;60583;50.094;8.748;2023-10-19T14:35:14;16.33;;;9.38;;
72557;SDS011;60583;50.094;8.748;2023-10-19T14:37:44;15.95;;;8.60;;
72557;SDS011;60583;50.094;8.748;2023-10-19T14:42:47;13.70;;;8.52;;
72557;SDS011;60583;50.094;8.748;2023-10-19T14:45:13;12.85;;;7.35;;
72557;SDS011;60583;50.094;8.748;2023-10-19T14:47:41;14.60;;;8.32;;
72557;SDS011;60583;50.094;8.748;2023-10-19T14:50:13;16.27;;;9.98;;